»·PEaware :: N1187 KSNA-KSBA

N1187 :: KSNA-KSBA

FLIGHT INFORMATION

Flight Status: Arrived
Operator: Privately registered:
United States
More flights under this callsign
Pilot: Anonymous 12254 (12254)
Aircraft: PILATUS PC-12 EAGLE
(PC12)
More flights by this aircraft type
Origin: KSNA John Wayne-Orange Co
United States
Destination: KSBA Santa Barbara Mun
United States
More flights between these airports :: More routes between these airports
Route: +CHANL3 SXC V208 VTU VTU282R KWANG
File this flight plan on PilotEdge
Remarks: TEC Route CSTP28
Altitude:
(Current/Filed)
8,000ft
Speed:
(Current/Filed)
200kts
Departed: 13-Apr-19 05:57 PM
Arrived: 13-Apr-19 06:38 PM
Distance/Time
Traveled:
108nm/0:41
Distance/Time
To Go:
Arrived

Flight Plot

Page will automatically refresh every two minutes.

Flight plan parsing failed; only flown route is shown


Map Options




Map Legend


Flown Route
Filed Route
Departure Airport
Arrival Airport
Navaid (VOR, NDB)
Fix

Horizontal Profiles

Position Reports

Time Latitude Longitude Heading Altitude Ground
Speed
13-Apr-19 17:41 33.672654 -117.873000 23 60ft 0kts
13-Apr-19 17:42 33.672654 -117.873000 23 60ft 0kts
13-Apr-19 17:43 33.672654 -117.873000 23 60ft 0kts
13-Apr-19 17:44 33.672654 -117.873000 23 60ft 0kts
13-Apr-19 17:45 33.672654 -117.873000 23 60ft 0kts
13-Apr-19 17:46 33.672654 -117.873000 23 60ft 0kts
13-Apr-19 17:47 33.672654 -117.873000 23 60ft 0kts
13-Apr-19 17:48 33.672654 -117.873000 23 60ft 0kts
13-Apr-19 17:49 33.672654 -117.873000 23 60ft 0kts
13-Apr-19 17:50 33.672654 -117.873000 23 60ft 0kts
13-Apr-19 17:51 33.672654 -117.873000 23 60ft 0kts
13-Apr-19 17:52 33.675627 -117.870363 28 60ft 23kts
13-Apr-19 17:53 33.681119 -117.867085 28 60ft 14kts
13-Apr-19 17:54 33.681955 -117.866111 99 60ft 2kts
13-Apr-19 17:55 33.681955 -117.866108 99 60ft 0kts
13-Apr-19 17:56 33.678652 -117.866928 207 60ft 84kts
13-Apr-19 17:57 33.643062 -117.885947 191 1096ft 170kts
13-Apr-19 17:58 33.593652 -117.894938 188 2617ft 186kts
13-Apr-19 17:59 33.546761 -117.921778 213 4125ft 192kts
13-Apr-19 18:00 33.501449 -117.956613 213 5622ft 196kts
13-Apr-19 18:01 33.465560 -118.001418 246 7146ft 194kts
13-Apr-19 18:02 33.419803 -118.039319 211 8006ft 226kts
13-Apr-19 18:03 33.362036 -118.079839 211 8020ft 249kts
13-Apr-19 18:04 33.339440 -118.151033 278 8033ft 242kts
13-Apr-19 18:05 33.349835 -118.229863 279 8037ft 238kts
13-Apr-19 18:06 33.360138 -118.307721 279 8043ft 236kts
13-Apr-19 18:07 33.370352 -118.385188 279 8045ft 235kts
13-Apr-19 18:08 33.398714 -118.452721 308 8044ft 229kts
13-Apr-19 18:09 33.439347 -118.511482 309 8044ft 227kts
13-Apr-19 18:10 33.479930 -118.569380 309 8044ft 226kts
13-Apr-19 18:11 33.520390 -118.627174 309 8044ft 225kts
13-Apr-19 18:12 33.559860 -118.683560 308 8046ft 222kts
13-Apr-19 18:13 33.599336 -118.740105 308 8046ft 221kts
13-Apr-19 18:14 33.638769 -118.796662 308 8038ft 221kts
13-Apr-19 18:15 33.678272 -118.853394 308 8027ft 221kts
13-Apr-19 18:16 33.717974 -118.910519 308 8019ft 222kts
13-Apr-19 18:17 33.757638 -118.967681 308 8015ft 223kts
13-Apr-19 18:18 33.803879 -119.014054 346 8019ft 226kts
13-Apr-19 18:19 33.866505 -119.023397 353 8017ft 227kts
13-Apr-19 18:20 33.929626 -119.030152 353 8017ft 228kts
13-Apr-19 18:21 33.992831 -119.036784 353 8018ft 228kts
13-Apr-19 18:22 34.056046 -119.043427 353 8018ft 228kts
13-Apr-19 18:23 34.114998 -119.061804 308 8025ft 224kts
13-Apr-19 18:24 34.147003 -119.126607 296 8012ft 224kts
13-Apr-19 18:25 34.175439 -119.193756 296 8010ft 224kts
13-Apr-19 18:26 34.203508 -119.260803 296 7788ft 228kts
13-Apr-19 18:27 34.233126 -119.331574 296 6288ft 240kts
13-Apr-19 18:28 34.262236 -119.401440 296 6007ft 224kts
13-Apr-19 18:29 34.289668 -119.467339 296 5733ft 214kts
13-Apr-19 18:30 34.314355 -119.528847 293 4316ft 196kts
13-Apr-19 18:31 34.333492 -119.582051 292 3995ft 145kts
13-Apr-19 18:32 34.351745 -119.633279 292 3819ft 201kts
13-Apr-19 18:33 34.379738 -119.696212 318 3127ft 214kts
13-Apr-19 18:34 34.421617 -119.739336 303 2219ft 176kts
13-Apr-19 18:35 34.429739 -119.784504 265 1075ft 101kts
13-Apr-19 18:36 34.428292 -119.815469 265 306ft 85kts
13-Apr-19 18:37 34.427797 -119.841121 274 14ft 32kts
13-Apr-19 18:38 34.426994 -119.841505 177 14ft 0kts
13-Apr-19 18:39 34.425886 -119.841135 162 14ft 22kts
13-Apr-19 18:40 34.422404 -119.837109 164 13ft 7kts

Navigation Log

Ident Type
Flight plan parsing failed, navigation log unavailable